createdAt,value
2019-05-11T00:00:52.974Z,26.20
2019-05-11T00:03:26.017Z,26.20
2019-05-11T00:06:05.564Z,26.30
2019-05-11T00:08:35.668Z,26.30
2019-05-11T00:11:17.520Z,26.30
2019-05-11T00:13:58.022Z,26.40
2019-05-11T00:19:27.629Z,26.40
2019-05-11T00:21:59.520Z,26.50
2019-05-11T00:24:31.557Z,26.50
2019-05-11T00:27:03.268Z,26.60
2019-05-11T00:29:43.001Z,26.70
2019-05-11T00:35:13.862Z,26.70
2019-05-11T00:37:45.901Z,26.70
2019-05-11T00:40:17.760Z,26.70
2019-05-11T00:42:49.684Z,26.70
2019-05-11T00:45:21.711Z,26.80
2019-05-11T00:47:53.279Z,26.80
2019-05-11T00:50:38.153Z,26.80
2019-05-11T00:52:58.150Z,26.90
2019-05-11T00:55:29.598Z,26.90
2019-05-11T00:58:01.059Z,27.00
2019-05-11T01:00:33.261Z,27.00
2019-05-11T01:03:05.024Z,27.00
2019-05-11T01:05:37.224Z,27.10
2019-05-11T01:08:09.446Z,27.10
2019-05-11T01:10:42.640Z,27.10
2019-05-11T01:13:14.796Z,27.10
2019-05-11T01:15:46.579Z,27.20
2019-05-11T01:18:21.441Z,27.20
2019-05-11T01:20:51.776Z,27.30
2019-05-11T01:23:23.707Z,27.30
2019-05-11T01:25:55.996Z,27.40
2019-05-11T01:28:28.079Z,27.40
2019-05-11T01:31:00.260Z,27.40
2019-05-11T01:33:32.284Z,27.40
2019-05-11T01:36:04.054Z,27.40
2019-05-11T01:38:35.806Z,27.50
2019-05-11T01:41:08.067Z,27.50
2019-05-11T01:43:41.219Z,27.50
2019-05-11T01:46:14.336Z,27.60
2019-05-11T01:48:47.980Z,27.60
2019-05-11T01:51:19.201Z,27.60
2019-05-11T01:53:55.175Z,27.60
2019-05-11T01:56:26.468Z,27.60
2019-05-11T01:58:57.408Z,27.60
2019-05-11T02:01:29.436Z,27.60
2019-05-11T02:04:05.588Z,27.60
2019-05-11T02:06:48.074Z,27.60
2019-05-11T02:09:19.688Z,27.70
2019-05-11T02:11:52.016Z,27.70
2019-05-11T02:17:28.019Z,27.70
2019-05-11T02:20:06.941Z,27.80
2019-05-11T02:22:45.469Z,27.80
2019-05-11T02:25:18.707Z,27.90
2019-05-11T02:27:50.526Z,27.90
2019-05-11T02:30:25.567Z,27.90
2019-05-11T02:32:57.511Z,28.00
2019-05-11T02:35:29.643Z,28.00
2019-05-11T02:38:03.854Z,28.10
2019-05-11T02:40:45.739Z,28.10
2019-05-11T02:43:20.035Z,28.10
2019-05-11T02:45:55.988Z,28.20
2019-05-11T02:48:25.419Z,28.20
2019-05-11T02:50:59.156Z,28.30
2019-05-11T02:53:32.658Z,28.40
2019-05-11T02:56:05.892Z,28.50
2019-05-11T02:58:37.967Z,28.70
2019-05-11T03:01:17.669Z,28.80
2019-05-11T03:04:01.429Z,28.90
2019-05-11T03:06:51.957Z,28.90
2019-05-11T03:09:15.410Z,29.00
2019-05-11T03:12:09.416Z,29.00
2019-05-11T03:14:42.771Z,29.00
2019-05-11T03:17:18.364Z,29.00
2019-05-11T03:19:49.831Z,28.90
2019-05-11T03:22:28.607Z,28.90
2019-05-11T03:24:59.825Z,28.90
2019-05-11T03:27:31.814Z,28.90
2019-05-11T03:30:03.878Z,28.90
2019-05-11T03:32:36.538Z,28.90
2019-05-11T03:35:08.830Z,28.90
2019-05-11T03:37:42.490Z,28.90
2019-05-11T03:40:14.518Z,28.90
2019-05-11T03:42:48.827Z,29.10
2019-05-11T03:45:23.260Z,29.10
2019-05-11T03:47:54.949Z,29.20
2019-05-11T03:50:28.006Z,29.30
2019-05-11T03:52:59.851Z,29.30
2019-05-11T03:56:36.487Z,29.30
2019-05-11T03:58:08.353Z,29.40
2019-05-11T04:00:43.026Z,29.50
2019-05-11T04:03:14.738Z,29.60
2019-05-11T04:05:56.068Z,29.60
2019-05-11T04:08:27.822Z,29.60
2019-05-11T04:11:07.166Z,29.70
2019-05-11T04:13:32.642Z,29.70
2019-05-11T04:16:04.583Z,29.90
2019-05-11T04:18:50.528Z,30.00
2019-05-11T04:22:49.074Z,30.10
2019-05-11T04:24:06.853Z,30.10
2019-05-11T04:26:40.054Z,30.20
2019-05-11T04:29:13.402Z,30.20
2019-05-11T04:31:46.468Z,30.30
2019-05-11T04:34:18.107Z,30.30
2019-05-11T04:37:14.884Z,30.30
2019-05-11T04:39:46.654Z,30.30
2019-05-11T04:42:18.414Z,30.30
2019-05-11T04:44:52.396Z,30.40
2019-05-11T04:47:23.171Z,30.50
2019-05-11T04:49:54.753Z,30.50
2019-05-11T04:52:26.197Z,30.50
2019-05-11T04:54:57.580Z,30.40
2019-05-11T04:57:28.846Z,30.40
2019-05-11T05:00:00.465Z,30.50
2019-05-11T05:02:32.411Z,30.60
2019-05-11T05:05:04.358Z,30.70
2019-05-11T05:07:35.850Z,30.80
2019-05-11T05:10:09.178Z,30.80
2019-05-11T05:12:40.690Z,30.80
2019-05-11T05:15:12.763Z,30.70
2019-05-11T05:17:44.504Z,30.80
2019-05-11T05:20:17.980Z,30.80
2019-05-11T05:22:49.503Z,30.90
2019-05-11T05:25:22.850Z,30.90
2019-05-11T05:27:55.007Z,30.90
2019-05-11T05:30:27.151Z,30.90
2019-05-11T05:32:59.352Z,30.90
2019-05-11T05:35:31.275Z,31.00
2019-05-11T05:38:03.158Z,31.10
2019-05-11T05:40:36.013Z,31.20
2019-05-11T05:43:08.076Z,31.20
2019-05-11T05:45:44.711Z,31.30
2019-05-11T05:48:16.908Z,31.30
2019-05-11T05:50:49.074Z,31.40
2019-05-11T05:53:20.819Z,31.40
2019-05-11T05:55:52.324Z,31.40
2019-05-11T05:58:23.833Z,31.30
2019-05-11T06:00:55.546Z,31.30
2019-05-11T06:03:28.129Z,31.20
2019-05-11T06:06:00.136Z,31.20
2019-05-11T06:08:34.694Z,31.20
2019-05-11T06:15:23.347Z,31.20
2019-05-11T06:24:06.761Z,31.70
2019-05-11T06:26:53.342Z,31.80
2019-05-11T06:29:31.993Z,31.90
2019-05-11T06:32:04.453Z,31.90
2019-05-11T06:34:36.695Z,31.80
2019-05-11T06:37:09.795Z,31.80
2019-05-11T06:39:43.397Z,31.80
2019-05-11T06:42:18.311Z,31.80
2019-05-11T06:44:49.975Z,31.80
2019-05-11T06:47:21.484Z,31.90
2019-05-11T06:49:54.658Z,31.90
2019-05-11T06:52:26.629Z,32.00
2019-05-11T06:54:58.752Z,32.00
2019-05-11T06:57:34.336Z,32.10
2019-05-11T07:00:17.500Z,32.10
2019-05-11T07:02:52.019Z,32.20
2019-05-11T07:05:27.563Z,32.20
2019-05-11T07:08:02.696Z,32.30
2019-05-11T07:10:34.431Z,32.40
2019-05-11T07:13:09.053Z,32.40
2019-05-11T07:15:40.363Z,32.40
2019-05-11T07:18:19.150Z,32.40
2019-05-11T07:20:50.551Z,32.40
2019-05-11T07:23:18.024Z,32.40
2019-05-11T07:25:49.569Z,32.40
2019-05-11T07:28:21.564Z,32.40
2019-05-11T07:30:59.731Z,32.40
2019-05-11T07:33:34.227Z,32.40
2019-05-11T07:36:08.260Z,32.40
2019-05-11T07:38:39.926Z,32.40
2019-05-11T07:41:11.460Z,32.40
2019-05-11T07:43:45.727Z,32.40
2019-05-11T07:46:19.947Z,32.40
2019-05-11T07:48:54.815Z,32.40
2019-05-11T07:51:28.536Z,32.40
2019-05-11T07:54:09.502Z,32.50
2019-05-11T07:56:42.477Z,32.50
2019-05-11T07:59:14.292Z,32.60
2019-05-11T08:01:47.937Z,32.60
2019-05-11T08:04:22.435Z,32.60
2019-05-11T08:06:55.781Z,32.50
2019-05-11T08:09:28.875Z,32.40
2019-05-11T08:12:04.755Z,32.40
2019-05-11T08:14:55.863Z,32.30
2019-05-11T08:20:09.947Z,32.20
2019-05-11T08:22:43.506Z,32.10
2019-05-11T08:25:19.422Z,32.10
2019-05-11T08:27:54.489Z,32.00
2019-05-11T08:30:31.544Z,32.00
2019-05-11T08:33:02.867Z,31.90
2019-05-11T08:35:38.980Z,31.80
2019-05-11T08:38:11.536Z,31.80
2019-05-11T08:40:43.643Z,31.90
2019-05-11T08:43:33.454Z,31.90
2019-05-11T08:46:05.290Z,32.00
2019-05-11T08:48:38.801Z,32.00
2019-05-11T08:51:13.141Z,32.00
2019-05-11T08:53:44.721Z,32.00
2019-05-11T08:56:21.923Z,32.00
2019-05-11T08:58:59.453Z,32.00
2019-05-11T09:01:28.448Z,32.10
2019-05-11T09:04:05.597Z,32.00
2019-05-11T09:06:41.035Z,32.00
2019-05-11T09:09:13.292Z,32.00
2019-05-11T09:11:48.233Z,32.00
2019-05-11T09:14:22.908Z,32.00
2019-05-11T09:16:57.587Z,32.00
2019-05-11T09:19:36.017Z,32.00
2019-05-11T09:22:08.418Z,32.00
2019-05-11T09:24:43.526Z,32.00
2019-05-11T09:27:14.942Z,32.00
2019-05-11T09:29:50.641Z,32.00
2019-05-11T09:32:23.947Z,32.10
2019-05-11T09:34:58.066Z,32.10
2019-05-11T09:37:29.734Z,32.10
2019-05-11T09:40:01.685Z,32.10
2019-05-11T09:42:35.920Z,32.20
2019-05-11T09:45:08.285Z,32.20
2019-05-11T09:47:40.399Z,32.10
2019-05-11T09:50:29.775Z,32.10
2019-05-11T09:52:57.494Z,32.10
2019-05-11T09:55:28.535Z,32.10
2019-05-11T09:58:08.346Z,32.00
2019-05-11T10:00:41.728Z,32.00
2019-05-11T10:03:14.860Z,32.00
2019-05-11T10:06:08.324Z,32.00
2019-05-11T10:08:48.580Z,32.00
2019-05-11T10:11:19.238Z,32.00
2019-05-11T10:13:52.712Z,31.90
2019-05-11T10:16:27.906Z,31.90
2019-05-11T10:19:00.169Z,31.80
2019-05-11T10:21:34.484Z,31.80
2019-05-11T10:24:09.893Z,31.80
2019-05-11T10:26:41.728Z,31.80
2019-05-11T10:29:14.733Z,31.80
2019-05-11T10:31:48.665Z,31.70
2019-05-11T10:34:19.846Z,31.80
2019-05-11T10:36:54.426Z,31.70
2019-05-11T10:39:27.913Z,31.70
2019-05-11T10:42:02.579Z,31.70
2019-05-11T10:44:38.517Z,31.70
2019-05-11T10:47:08.874Z,31.70
2019-05-11T10:49:40.642Z,31.70
2019-05-11T10:52:12.350Z,31.60
2019-05-11T10:54:44.182Z,31.60
2019-05-11T10:57:18.897Z,31.60
2019-05-11T10:59:51.975Z,31.60
2019-05-11T11:02:54.818Z,31.60
2019-05-11T11:08:08.322Z,31.60
2019-05-11T11:13:51.501Z,31.50
2019-05-11T11:16:36.750Z,31.50
2019-05-11T11:19:03.307Z,31.50
2019-05-11T11:21:39.178Z,31.50
2019-05-11T11:24:10.584Z,31.50
2019-05-11T11:26:42.281Z,31.50
2019-05-11T11:29:14.180Z,31.50
2019-05-11T11:31:48.129Z,31.40
2019-05-11T11:34:23.053Z,31.40
2019-05-11T11:36:53.415Z,31.40
2019-05-11T11:39:30.548Z,31.40
2019-05-11T11:42:02.545Z,31.30
2019-05-11T11:44:34.213Z,31.30
2019-05-11T11:47:09.321Z,31.30
2019-05-11T11:49:40.673Z,31.20
2019-05-11T11:52:12.691Z,31.30
2019-05-11T11:54:47.953Z,31.20
2019-05-11T11:57:20.363Z,31.20
2019-05-11T12:02:53.099Z,31.20
2019-05-11T12:05:17.800Z,31.10
2019-05-11T12:07:50.040Z,31.10
2019-05-11T12:10:25.128Z,31.10
2019-05-11T12:13:01.122Z,31.10
2019-05-11T12:15:38.854Z,31.10
2019-05-11T12:18:11.107Z,31.10
2019-05-11T12:20:42.570Z,31.10
2019-05-11T12:23:18.232Z,31.10
2019-05-11T12:25:52.537Z,31.00
2019-05-11T12:28:27.500Z,31.00
2019-05-11T12:30:59.158Z,31.00
2019-05-11T12:33:30.351Z,31.00
2019-05-11T12:36:07.937Z,31.00
2019-05-11T12:38:38.707Z,31.00
2019-05-11T12:41:10.013Z,31.00
2019-05-11T12:43:41.340Z,31.00
2019-05-11T12:46:13.119Z,31.00
2019-05-11T12:48:45.200Z,31.00
2019-05-11T12:51:18.588Z,30.90
2019-05-11T12:53:49.755Z,30.90
2019-05-11T12:56:21.649Z,31.00
2019-05-11T13:01:48.616Z,30.90
2019-05-11T13:04:20.292Z,30.90
2019-05-11T13:06:52.278Z,30.90
2019-05-11T13:09:23.870Z,30.90
2019-05-11T13:11:55.437Z,30.90
2019-05-11T13:14:28.432Z,30.90
2019-05-11T13:17:02.613Z,30.90
2019-05-11T13:19:34.272Z,30.80
2019-05-11T13:22:09.258Z,30.80
2019-05-11T13:24:44.255Z,30.80
2019-05-11T13:27:20.177Z,30.80
2019-05-11T13:29:51.772Z,30.80
2019-05-11T13:32:28.229Z,30.80
2019-05-11T13:35:03.122Z,30.80
2019-05-11T13:37:34.640Z,30.80
2019-05-11T13:40:11.562Z,30.70
2019-05-11T13:42:43.638Z,30.70
2019-05-11T13:45:24.310Z,30.70
2019-05-11T13:47:59.246Z,30.70
2019-05-11T13:50:30.942Z,30.70
2019-05-11T13:53:07.858Z,30.70
2019-05-11T13:56:10.510Z,30.70
2019-05-11T13:59:07.544Z,30.70
2019-05-11T14:10:49.025Z,30.60
2019-05-11T14:13:20.635Z,30.60
2019-05-11T14:16:05.317Z,30.60
2019-05-11T14:18:44.327Z,30.60
2019-05-11T14:21:10.582Z,30.50
2019-05-11T14:25:00.904Z,30.50
2019-05-11T14:26:19.445Z,30.50
2019-05-11T14:29:15.030Z,30.50
2019-05-11T14:34:48.343Z,30.40
2019-05-11T14:37:37.804Z,30.40
2019-05-11T14:40:13.003Z,30.40
2019-05-11T14:45:10.746Z,30.40
2019-05-11T14:45:54.019Z,30.40
2019-05-11T14:48:49.973Z,30.40
2019-05-11T14:52:18.983Z,30.40
2019-05-11T14:54:30.638Z,30.40
2019-05-11T15:00:14.932Z,30.40
2019-05-11T15:07:38.424Z,30.40
2019-05-11T15:08:40.869Z,30.30
2019-05-11T15:14:48.912Z,30.30
2019-05-11T15:23:02.909Z,30.30
2019-05-11T15:25:54.861Z,30.30
2019-05-11T15:28:22.500Z,30.30
2019-05-11T15:31:00.643Z,30.30
2019-05-11T15:33:35.071Z,30.20
2019-05-11T15:36:15.191Z,30.20
2019-05-11T15:39:15.401Z,30.20
2019-05-11T15:41:51.115Z,30.20
2019-05-11T15:44:28.439Z,30.20
2019-05-11T15:49:51.580Z,30.20
2019-05-11T15:52:26.201Z,30.10
2019-05-11T15:55:45.092Z,30.10
2019-05-11T15:58:19.075Z,30.10
2019-05-11T16:00:52.778Z,30.10
2019-05-11T16:03:25.347Z,30.10
2019-05-11T16:06:03.629Z,30.10
2019-05-11T16:08:32.569Z,30.10
2019-05-11T16:11:09.356Z,30.10
2019-05-11T16:13:43.898Z,30.10
2019-05-11T16:16:15.837Z,30.10
2019-05-11T16:18:48.383Z,30.00
2019-05-11T16:21:21.046Z,30.00
2019-05-11T16:23:52.670Z,30.10
2019-05-11T16:26:24.017Z,30.10
2019-05-11T16:29:00.406Z,30.00
2019-05-11T16:31:32.804Z,30.00
2019-05-11T16:34:04.876Z,30.00
2019-05-11T16:36:38.696Z,30.00
2019-05-11T16:39:10.483Z,30.00
2019-05-11T16:41:43.322Z,30.00
2019-05-11T16:44:15.139Z,30.00
2019-05-11T16:46:50.444Z,29.90
2019-05-11T16:49:28.506Z,29.90
2019-05-11T16:51:53.022Z,29.90
2019-05-11T16:54:24.609Z,29.90
2019-05-11T16:56:57.926Z,29.90
2019-05-11T16:59:30.038Z,29.90
2019-05-11T17:02:02.099Z,29.90
2019-05-11T17:04:34.048Z,29.90
2019-05-11T17:07:08.190Z,29.90
2019-05-11T17:09:39.407Z,29.80
2019-05-11T17:12:11.337Z,29.80
2019-05-11T17:14:44.531Z,29.80
2019-05-11T17:17:18.351Z,29.80
2019-05-11T17:19:49.579Z,29.70
2019-05-11T17:22:21.665Z,29.70
2019-05-11T17:24:54.837Z,29.70
2019-05-11T17:27:28.522Z,29.70
2019-05-11T17:30:00.236Z,29.70
2019-05-11T17:32:31.529Z,29.70
2019-05-11T17:35:02.907Z,29.60
2019-05-11T17:37:34.318Z,29.60
2019-05-11T17:40:09.024Z,29.60
2019-05-11T17:42:40.599Z,29.60
2019-05-11T17:45:12.615Z,29.60
2019-05-11T17:48:24.639Z,29.50
2019-05-11T17:50:23.403Z,29.50
2019-05-11T17:52:54.737Z,29.50
2019-05-11T17:55:28.824Z,29.50
2019-05-11T17:58:00.303Z,29.50
2019-05-11T18:00:32.202Z,29.40
2019-05-11T18:03:08.351Z,29.40
2019-05-11T18:05:37.977Z,29.40
2019-05-11T18:08:10.332Z,29.30
2019-05-11T18:10:42.510Z,29.40
2019-05-11T18:13:16.976Z,29.30
2019-05-11T18:15:49.353Z,29.30
2019-05-11T18:18:23.974Z,29.30
2019-05-11T18:20:57.682Z,29.30
2019-05-11T18:23:29.036Z,29.30
2019-05-11T18:26:01.616Z,29.30
2019-05-11T18:28:33.635Z,29.20
2019-05-11T18:31:05.978Z,29.20
2019-05-11T18:33:38.135Z,29.20
2019-05-11T18:36:10.104Z,29.20
2019-05-11T18:38:41.941Z,29.10
2019-05-11T18:41:14.057Z,29.10
2019-05-11T18:43:48.388Z,29.10
2019-05-11T18:46:20.553Z,29.10
2019-05-11T18:48:52.075Z,29.10
2019-05-11T18:51:23.344Z,29.10
2019-05-11T18:53:54.623Z,29.10
2019-05-11T18:56:28.594Z,29.10
2019-05-11T18:58:58.957Z,29.00
2019-05-11T19:01:31.502Z,29.00
2019-05-11T19:04:03.557Z,29.00
2019-05-11T19:06:37.660Z,28.90
2019-05-11T19:09:09.706Z,28.90
2019-05-11T19:11:42.734Z,28.90
2019-05-11T19:14:14.275Z,28.90
2019-05-11T19:16:45.538Z,28.90
2019-05-11T19:19:18.259Z,28.80
2019-05-11T19:21:49.893Z,28.80
2019-05-11T19:24:21.980Z,28.80
2019-05-11T19:26:53.791Z,28.80
2019-05-11T19:29:25.761Z,28.80
2019-05-11T19:31:58.039Z,28.80
2019-05-11T19:34:29.747Z,28.70
2019-05-11T19:37:01.677Z,28.70
2019-05-11T19:39:33.866Z,28.80
2019-05-11T19:42:07.677Z,28.70
2019-05-11T19:44:39.158Z,28.70
2019-05-11T19:47:11.049Z,28.70
2019-05-11T19:49:42.546Z,28.70
2019-05-11T19:52:14.264Z,28.60
2019-05-11T19:54:48.777Z,28.60
2019-05-11T19:57:20.250Z,28.60
2019-05-11T19:59:52.319Z,28.60
2019-05-11T20:02:24.328Z,28.50
2019-05-11T20:04:58.425Z,28.50
2019-05-11T20:07:31.896Z,28.50
2019-05-11T20:10:01.500Z,28.50
2019-05-11T20:12:33.401Z,28.50
2019-05-11T20:15:08.082Z,28.50
2019-05-11T20:17:39.244Z,28.40
2019-05-11T20:20:15.177Z,28.40
2019-05-11T20:22:48.172Z,28.40
2019-05-11T20:25:19.466Z,28.40
2019-05-11T20:27:51.026Z,28.40
2019-05-11T20:30:22.746Z,28.40
2019-05-11T20:32:54.663Z,28.40
2019-05-11T20:35:28.023Z,28.40
2019-05-11T20:37:59.409Z,28.40
2019-05-11T20:40:31.461Z,28.40
2019-05-11T20:43:02.838Z,28.30
2019-05-11T20:45:34.760Z,28.40
2019-05-11T20:48:07.909Z,28.30
2019-05-11T20:50:40.083Z,28.30
2019-05-11T20:53:12.091Z,28.30
2019-05-11T20:55:44.075Z,28.30
2019-05-11T20:58:18.497Z,28.30
2019-05-11T21:00:49.232Z,28.30
2019-05-11T21:03:21.535Z,28.20
2019-05-11T21:05:54.809Z,28.30
2019-05-11T21:08:28.343Z,28.20
2019-05-11T21:10:59.392Z,28.20
2019-05-11T21:13:31.241Z,28.20
2019-05-11T21:16:03.130Z,28.10
2019-05-11T21:18:34.796Z,28.10
2019-05-11T21:21:06.750Z,28.10
2019-05-11T21:23:40.666Z,28.10
2019-05-11T21:26:11.620Z,28.10
2019-05-11T21:28:43.506Z,28.10
2019-05-11T21:31:15.276Z,28.10
2019-05-11T21:33:46.213Z,28.10
2019-05-11T21:36:18.157Z,28.10
2019-05-11T21:38:50.201Z,28.10
2019-05-11T21:41:21.835Z,28.00
2019-05-11T21:43:55.186Z,27.90
2019-05-11T21:46:28.383Z,27.90
2019-05-11T21:49:00.246Z,28.00
2019-05-11T21:51:32.148Z,27.90
2019-05-11T21:54:03.628Z,27.90
2019-05-11T21:56:34.867Z,27.90
2019-05-11T21:59:07.808Z,27.90
2019-05-11T22:01:38.900Z,27.90
2019-05-11T22:04:11.263Z,27.90
2019-05-11T22:06:43.379Z,27.90
2019-05-11T22:09:18.391Z,27.80
2019-05-11T22:11:49.139Z,27.90
2019-05-11T22:14:20.627Z,27.80
2019-05-11T22:16:52.717Z,27.80
2019-05-11T22:19:24.867Z,27.80
2019-05-11T22:21:58.273Z,27.80
2019-05-11T22:24:30.127Z,27.70
2019-05-11T22:27:02.174Z,27.70
2019-05-11T22:29:34.056Z,27.70
2019-05-11T22:32:05.801Z,27.70
2019-05-11T22:34:37.959Z,27.70
2019-05-11T22:37:10.252Z,27.70
2019-05-11T22:39:42.299Z,27.70
2019-05-11T22:42:14.513Z,27.70
2019-05-11T22:44:48.351Z,27.70
2019-05-11T22:47:19.706Z,27.70
2019-05-11T22:49:50.911Z,27.70
2019-05-11T22:52:33.015Z,27.70
2019-05-11T22:54:59.042Z,27.80
2019-05-11T22:57:30.854Z,27.70
2019-05-11T23:00:02.919Z,27.80
2019-05-11T23:02:34.953Z,27.80
2019-05-11T23:05:08.651Z,27.80
2019-05-11T23:07:41.413Z,27.80
2019-05-11T23:10:13.542Z,27.80
2019-05-11T23:12:45.118Z,27.80
2019-05-11T23:15:17.308Z,27.70
2019-05-11T23:17:48.977Z,27.70
2019-05-11T23:23:28.237Z,27.70
2019-05-11T23:25:57.906Z,27.80
2019-05-11T23:28:30.418Z,27.70
2019-05-11T23:31:02.461Z,27.80
2019-05-11T23:33:34.404Z,27.80
2019-05-11T23:36:07.835Z,27.80
2019-05-11T23:38:53.601Z,27.80
2019-05-11T23:41:24.726Z,27.80
2019-05-11T23:43:58.361Z,27.80
2019-05-11T23:46:33.229Z,27.80
2019-05-11T23:49:04.003Z,27.80
2019-05-11T23:51:35.764Z,27.80
2019-05-11T23:54:15.793Z,27.80
2019-05-11T23:56:49.849Z,27.90
2019-05-11T23:59:24.346Z,27.90
